createdAt,value
2022-07-28T01:28:15.183Z,101086.66
2022-07-28T02:33:00.899Z,101072.94
2022-07-28T02:35:51.514Z,101091.88
2022-07-28T02:49:06.522Z,101085.84
2022-07-28T02:55:40.989Z,101091.53
2022-07-28T03:23:16.845Z,101113.41
2022-07-28T03:29:34.351Z,101118.84
2022-07-28T03:39:11.509Z,101136.06
2022-07-28T03:41:51.576Z,101138.03
2022-07-28T03:48:33.814Z,101144.94
2022-07-28T03:51:30.641Z,101128.66
2022-07-28T03:54:12.040Z,101142.91
2022-07-28T04:04:16.823Z,101138.91
2022-07-28T04:38:03.978Z,101150.50
2022-07-28T04:40:30.756Z,101154.63
2022-07-28T04:42:57.580Z,101155.28
2022-07-28T04:45:24.390Z,101153.00
2022-07-28T04:47:52.064Z,101154.69
2022-07-28T04:50:21.474Z,101155.09
2022-07-28T04:52:57.528Z,101159.53
2022-07-28T04:55:25.089Z,101165.53
2022-07-28T04:57:51.815Z,101157.97
2022-07-28T05:00:20.088Z,101167.63
2022-07-28T05:02:52.921Z,101164.06
2022-07-28T05:05:33.416Z,101163.44
2022-07-28T05:08:00.273Z,101168.69
2022-07-28T05:10:36.262Z,101164.63
2022-07-28T05:33:12.565Z,101162.59
2022-07-28T05:36:00.951Z,101165.31
2022-07-28T05:48:22.557Z,101174.91
2022-07-28T05:54:32.702Z,101166.94
2022-07-28T05:56:59.529Z,101179.25
2022-07-28T06:02:52.985Z,101179.81
2022-07-28T06:05:23.006Z,101179.13
2022-07-28T06:07:50.933Z,101179.22
2022-07-28T06:10:22.693Z,101176.91
2022-07-28T06:12:58.155Z,101176.84
2022-07-28T06:15:26.773Z,101185.44
2022-07-28T06:17:56.183Z,101186.91
2022-07-28T06:20:23.787Z,101191.25
2022-07-28T06:22:52.397Z,101197.50
2022-07-28T06:25:30.207Z,101192.13
2022-07-28T06:28:03.871Z,101190.16
2022-07-28T06:30:31.952Z,101192.25
2022-07-28T06:32:59.131Z,101181.91
2022-07-28T06:35:26.353Z,101189.34
2022-07-28T06:37:53.911Z,101186.53
2022-07-28T06:40:23.099Z,101183.00
2022-07-28T06:42:50.560Z,101183.34
2022-07-28T06:45:21.387Z,101190.41
2022-07-28T06:47:49.627Z,101185.03
2022-07-28T06:50:25.033Z,101187.25
2022-07-28T06:52:56.931Z,101190.66
2022-07-28T06:55:25.794Z,101186.50
2022-07-28T06:58:01.857Z,101181.94
2022-07-28T07:00:28.785Z,101176.59
2022-07-28T07:02:55.597Z,101183.41
2022-07-28T07:05:22.378Z,101174.94
2022-07-28T07:07:49.320Z,101170.84
2022-07-28T07:10:17.595Z,101181.81
2022-07-28T07:12:45.846Z,101181.16
2022-07-28T07:15:15.892Z,101180.91
2022-07-28T07:17:43.011Z,101183.69
2022-07-28T07:20:10.700Z,101189.34
2022-07-28T07:22:42.724Z,101185.63
2022-07-28T07:25:11.014Z,101191.09
2022-07-28T07:27:38.291Z,101192.81
2022-07-28T07:30:09.631Z,101191.13
2022-07-28T07:32:37.422Z,101176.09
2022-07-28T07:35:05.330Z,101185.41
2022-07-28T07:37:35.291Z,101180.84
2022-07-28T07:40:05.847Z,101191.69
2022-07-28T07:42:32.837Z,101186.88
2022-07-28T07:44:59.825Z,101193.81
2022-07-28T07:47:26.666Z,101190.34
2022-07-28T07:49:53.477Z,101197.47
2022-07-28T07:52:20.552Z,101187.53
2022-07-28T07:54:47.570Z,101185.44
2022-07-28T07:57:14.518Z,101186.59
2022-07-28T07:59:41.910Z,101185.00
2022-07-28T08:02:08.850Z,101185.41
2022-07-28T08:04:38.407Z,101198.16
2022-07-28T08:07:06.636Z,101194.91
2022-07-28T08:09:34.679Z,101190.06
2022-07-28T08:12:01.599Z,101186.25
2022-07-28T08:18:10.615Z,101171.19
2022-07-28T08:20:41.416Z,101171.94
2022-07-28T08:23:34.563Z,101185.75
2022-07-28T08:26:13.424Z,101196.81
2022-07-28T08:28:58.430Z,101183.41
2022-07-28T08:34:26.398Z,101182.09
2022-07-28T08:37:04.817Z,101177.16
2022-07-28T08:39:38.975Z,101189.13
2022-07-28T08:42:24.453Z,101188.69
2022-07-28T08:45:19.022Z,101189.34
2022-07-28T08:48:10.707Z,101190.13
2022-07-28T08:50:42.822Z,101185.03
2022-07-28T08:53:20.906Z,101184.50
2022-07-28T08:56:04.948Z,101205.19
2022-07-28T08:58:49.935Z,101189.03
2022-07-28T09:01:20.571Z,101195.19
2022-07-28T09:03:49.372Z,101194.16
2022-07-28T09:06:16.679Z,101189.81
2022-07-28T09:08:43.887Z,101194.97
2022-07-28T09:11:16.102Z,101197.06
2022-07-28T09:13:42.906Z,101193.81
2022-07-28T09:16:09.793Z,101201.75
2022-07-28T09:19:00.800Z,101203.25
2022-07-28T09:21:27.705Z,101202.38
2022-07-28T09:23:57.629Z,101190.19
2022-07-28T09:26:27.921Z,101199.72
2022-07-28T09:29:08.826Z,101201.53
2022-07-28T09:32:09.231Z,101194.38
2022-07-28T09:34:48.952Z,101186.22
2022-07-28T09:37:30.005Z,101199.56
2022-07-28T09:40:10.799Z,101192.34
2022-07-28T09:42:58.420Z,101200.66
2022-07-28T09:45:29.006Z,101189.09
2022-07-28T09:48:13.476Z,101196.91
2022-07-28T09:50:45.120Z,101188.13
2022-07-28T09:53:28.277Z,101190.09
2022-07-28T09:56:01.091Z,101193.41
2022-07-28T09:58:52.927Z,101189.56
2022-07-28T10:01:31.162Z,101182.88
2022-07-28T10:04:14.739Z,101181.06
2022-07-28T10:06:45.093Z,101184.03
2022-07-28T10:09:30.262Z,101171.38
2022-07-28T10:12:18.494Z,101177.59
2022-07-28T10:14:49.045Z,101186.59
2022-07-28T10:17:27.080Z,101186.34
2022-07-28T10:20:05.439Z,101176.34
2022-07-28T10:22:43.491Z,101174.19
2022-07-28T10:36:13.025Z,101174.09
2022-07-28T10:38:55.088Z,101162.72
2022-07-28T10:41:41.308Z,101163.25
2022-07-28T10:44:18.486Z,101173.09
2022-07-28T10:46:50.963Z,101164.69
2022-07-28T10:53:03.715Z,101157.69
2022-07-28T10:59:46.405Z,101164.28
2022-07-28T11:02:55.650Z,101163.47
2022-07-28T11:05:39.696Z,101172.84
2022-07-28T11:08:15.768Z,101160.34
2022-07-28T11:17:10.075Z,101168.94
2022-07-28T11:20:01.126Z,101159.88
2022-07-28T11:22:34.576Z,101165.66
2022-07-28T11:25:19.513Z,101153.06
2022-07-28T11:27:50.818Z,101154.38
2022-07-28T11:30:43.939Z,101159.72
2022-07-28T11:33:20.022Z,101150.94
2022-07-28T11:35:47.012Z,101144.84
2022-07-28T11:38:31.183Z,101149.97
2022-07-28T11:41:00.541Z,101143.94
2022-07-28T11:44:00.083Z,101128.13
2022-07-28T11:46:30.124Z,101132.31
2022-07-28T11:49:17.878Z,101141.59
2022-07-28T11:52:20.810Z,101126.66
2022-07-28T11:54:50.029Z,101129.50
2022-07-28T11:57:24.446Z,101129.53
2022-07-28T12:00:18.662Z,101119.09
2022-07-28T12:02:57.803Z,101134.28
2022-07-28T12:05:25.557Z,101121.81
2022-07-28T12:07:56.189Z,101121.13
2022-07-28T12:11:00.689Z,101111.47
2022-07-28T12:13:43.694Z,101117.06
2022-07-28T12:16:14.276Z,101108.91
2022-07-28T12:19:11.021Z,101109.44
2022-07-28T12:21:49.004Z,101111.16
2022-07-28T12:24:46.054Z,101107.25
2022-07-28T12:27:16.904Z,101097.56
2022-07-28T12:29:58.540Z,101110.97
2022-07-28T12:32:35.417Z,101106.41
2022-07-28T12:35:13.855Z,101105.03
2022-07-28T12:37:48.212Z,101100.44
2022-07-28T12:40:26.664Z,101103.66
2022-07-28T12:43:13.099Z,101109.03
2022-07-28T12:45:52.623Z,101103.94
2022-07-28T12:48:25.060Z,101092.38
2022-07-28T12:51:31.763Z,101095.97
2022-07-28T12:54:09.171Z,101104.78
2022-07-28T12:56:45.787Z,101099.22
2022-07-28T12:59:16.176Z,101099.34
2022-07-28T13:01:54.199Z,101086.84
2022-07-28T13:04:54.634Z,101088.84
2022-07-28T13:07:21.506Z,101084.09
2022-07-28T13:10:02.417Z,101088.75
2022-07-28T13:12:44.884Z,101084.75
2022-07-28T13:15:27.308Z,101074.03
2022-07-28T13:17:56.442Z,101075.72
2022-07-28T13:20:26.790Z,101068.75
2022-07-28T16:14:34.689Z,100978.19
2022-07-28T16:17:29.659Z,100985.91
2022-07-28T16:23:38.122Z,100978.19
2022-07-28T16:26:20.345Z,100988.03
2022-07-28T16:28:47.933Z,100986.06
2022-07-28T16:31:14.756Z,100984.81
2022-07-28T16:33:41.611Z,100990.78
2022-07-28T16:36:10.904Z,100988.88
2022-07-28T16:39:09.955Z,100985.94
2022-07-28T16:45:53.012Z,100984.47
2022-07-28T16:48:20.853Z,100987.84
2022-07-28T16:50:47.610Z,100972.28
2022-07-28T16:53:14.586Z,100991.34
2022-07-28T16:55:42.351Z,100991.88
2022-07-28T16:58:09.066Z,100991.91
2022-07-28T17:00:36.092Z,100991.84
2022-07-28T17:03:02.814Z,100989.63
2022-07-28T17:05:29.482Z,100994.31
2022-07-28T17:07:56.310Z,100990.59
2022-07-28T17:10:27.070Z,100991.38
2022-07-28T17:12:54.643Z,100995.75
2022-07-28T17:15:22.745Z,100993.47
2022-07-28T17:17:54.593Z,101001.09
2022-07-28T17:20:25.572Z,100994.78
2022-07-28T17:22:52.447Z,100989.25
2022-07-28T17:28:06.925Z,101000.47
2022-07-28T17:30:34.392Z,100998.09
2022-07-28T17:33:07.886Z,100999.53
2022-07-28T17:35:36.400Z,100996.75
2022-07-28T17:38:04.548Z,101002.53
2022-07-28T17:40:31.235Z,100999.19
2022-07-28T17:42:58.043Z,101001.84
2022-07-28T17:45:45.810Z,101003.88
2022-07-28T17:48:12.741Z,101003.81
2022-07-28T17:50:42.910Z,101007.75
2022-07-28T17:53:22.038Z,101007.75
2022-07-28T17:55:59.947Z,101006.56
2022-07-28T17:58:29.533Z,101015.94
2022-07-28T18:01:11.205Z,101007.47
2022-07-28T18:03:59.343Z,101007.59
2022-07-28T18:06:29.700Z,101016.88
2022-07-28T18:08:56.725Z,101004.63
2022-07-28T18:11:23.497Z,101009.88
2022-07-28T18:14:03.605Z,101009.34
2022-07-28T18:16:35.219Z,101005.97
2022-07-28T18:19:02.765Z,101005.44
2022-07-28T18:21:29.603Z,101005.69
2022-07-28T18:23:56.354Z,100990.81
2022-07-28T18:26:23.107Z,101005.66
2022-07-28T18:28:50.009Z,100996.41
2022-07-28T18:31:16.830Z,100994.44
2022-07-28T18:33:44.135Z,101001.22
2022-07-28T18:36:10.846Z,100999.25
2022-07-28T18:38:37.552Z,101004.50
2022-07-28T18:41:05.138Z,101006.38
2022-07-28T18:43:31.811Z,100999.97
2022-07-28T18:45:58.520Z,101000.84
2022-07-28T18:48:28.101Z,101007.47
2022-07-28T18:50:54.827Z,101009.66
2022-07-28T18:53:21.576Z,101012.72
2022-07-28T18:55:48.286Z,101002.53
2022-07-28T18:58:15.003Z,101008.44
2022-07-28T19:00:41.777Z,101012.81
2022-07-28T19:03:08.640Z,101011.09
2022-07-28T19:05:36.701Z,101010.88
2022-07-28T19:08:05.464Z,101018.59
2022-07-28T19:11:47.555Z,101013.34
2022-07-28T19:14:00.816Z,101025.91
2022-07-28T19:16:27.648Z,101019.75
2022-07-28T19:18:54.823Z,101032.75
2022-07-28T19:21:24.566Z,101027.78
2022-07-28T19:24:00.042Z,101030.66
2022-07-28T19:26:41.584Z,101024.22
2022-07-28T19:29:27.810Z,101027.03
2022-07-28T19:32:05.023Z,101025.84
2022-07-28T19:34:36.550Z,101038.81
2022-07-28T19:37:03.845Z,101027.41
2022-07-28T19:39:34.230Z,101030.34
2022-07-28T19:42:01.132Z,101028.25
2022-07-28T19:44:30.293Z,101036.75
2022-07-28T19:47:00.597Z,101035.28
2022-07-28T19:49:27.464Z,101030.28
2022-07-28T19:51:55.809Z,101027.34
2022-07-28T19:54:23.849Z,101035.59
2022-07-28T19:56:52.434Z,101028.81
2022-07-28T19:59:22.588Z,101035.81
2022-07-28T20:01:51.872Z,101042.75
2022-07-28T20:04:21.495Z,101040.22
2022-07-28T20:06:54.841Z,101040.69
2022-07-28T20:09:22.425Z,101045.53
2022-07-28T20:11:49.846Z,101038.25
2022-07-28T20:14:17.530Z,101046.19
2022-07-28T20:16:46.404Z,101049.81
2022-07-28T20:19:16.603Z,101048.13
2022-07-28T20:21:45.789Z,101053.13
2022-07-28T20:24:21.793Z,101056.41
2022-07-28T20:26:48.720Z,101053.16
2022-07-28T20:29:18.400Z,101050.19
2022-07-28T20:31:47.731Z,101049.66
2022-07-28T20:34:15.485Z,101052.19
2022-07-28T20:36:42.741Z,101048.38
2022-07-28T20:39:42.179Z,101050.00
2022-07-28T20:41:58.894Z,101054.66
2022-07-28T20:44:29.190Z,101053.41
2022-07-28T20:47:00.585Z,101053.00
2022-07-28T20:49:28.788Z,101054.16
2022-07-28T20:52:05.901Z,101060.16
2022-07-28T20:54:38.276Z,101059.16
2022-07-28T20:57:14.848Z,101062.59
2022-07-28T20:59:54.133Z,101063.88
2022-07-28T21:02:22.325Z,101061.75
2022-07-28T21:04:50.523Z,101067.03
2022-07-28T21:08:00.603Z,101068.03
2022-07-28T21:10:17.055Z,101070.84
2022-07-28T21:12:50.049Z,101064.34
2022-07-28T21:15:49.900Z,101063.19
2022-07-28T21:18:27.590Z,101073.13
2022-07-28T21:21:12.161Z,101070.00
2022-07-28T21:23:45.750Z,101078.22
2022-07-28T21:26:27.139Z,101073.09
2022-07-28T21:32:05.974Z,101087.25
2022-07-28T21:34:48.535Z,101086.94
2022-07-28T21:37:23.738Z,101088.66
2022-07-28T21:39:56.030Z,101092.47
2022-07-28T21:42:40.877Z,101086.34
2022-07-28T21:45:11.408Z,101094.53
2022-07-28T21:48:06.114Z,101099.88
2022-07-28T21:50:38.023Z,101094.44
2022-07-28T21:53:07.981Z,101105.44
2022-07-28T21:55:35.305Z,101099.75
2022-07-28T21:58:13.850Z,101099.75
2022-07-28T22:00:47.919Z,101098.31
2022-07-28T22:03:15.255Z,101109.03
2022-07-28T22:05:47.311Z,101108.63
2022-07-28T22:08:14.234Z,101112.44
2022-07-28T22:10:51.896Z,101107.34
2022-07-28T22:13:23.418Z,101104.47
2022-07-28T22:15:53.621Z,101104.06
2022-07-28T22:18:23.262Z,101112.53
2022-07-28T22:21:01.194Z,101104.28
2022-07-28T22:23:29.083Z,101106.25
2022-07-28T22:25:59.696Z,101111.63
2022-07-28T22:28:35.259Z,101106.97
2022-07-28T22:31:25.587Z,101114.81
2022-07-28T22:34:04.955Z,101115.22
2022-07-28T22:36:32.193Z,101114.44
2022-07-28T22:39:07.225Z,101125.50
2022-07-28T22:41:39.844Z,101114.56
2022-07-28T22:44:19.653Z,101120.78
2022-07-28T22:46:49.164Z,101121.91
2022-07-28T22:49:16.780Z,101120.91
2022-07-28T22:51:51.564Z,101128.78
2022-07-28T22:54:22.521Z,101130.72
2022-07-28T22:56:49.760Z,101133.56
2022-07-28T22:59:35.705Z,101126.75
2022-07-28T23:02:16.062Z,101140.31
2022-07-28T23:05:07.152Z,101139.09
2022-07-28T23:07:52.987Z,101143.63
2022-07-28T23:10:27.014Z,101142.88
2022-07-28T23:12:56.129Z,101152.66
2022-07-28T23:15:40.797Z,101150.81
2022-07-28T23:18:10.704Z,101149.41
2022-07-28T23:20:39.067Z,101151.25
2022-07-28T23:23:06.402Z,101152.94
2022-07-28T23:25:33.751Z,101144.41
2022-07-28T23:28:00.892Z,101139.88
2022-07-28T23:30:30.759Z,101145.66
2022-07-28T23:32:57.891Z,101142.13
2022-07-28T23:35:27.305Z,101138.59
2022-07-28T23:37:54.260Z,101141.03
2022-07-28T23:40:21.485Z,101139.22
2022-07-28T23:42:48.881Z,101136.78
2022-07-28T23:45:18.527Z,101129.25
2022-07-28T23:47:45.516Z,101132.03
2022-07-28T23:50:15.056Z,101132.78
2022-07-28T23:52:42.224Z,101136.06
2022-07-28T23:55:09.426Z,101130.34
2022-07-28T23:57:39.113Z,101125.81
